sensor_id;sensor_type;location;lat;lon;timestamp;pressure;altitude;pressure_sealevel;temperature;humidity
78562;BME280;68963;52.138;5.446;2023-07-31T00:01:04;101009.59;;;15.79;100.00
78562;BME280;68963;52.138;5.446;2023-07-31T00:03:31;101012.25;;;15.79;100.00
78562;BME280;68963;52.138;5.446;2023-07-31T00:05:58;101008.34;;;15.81;100.00
78562;BME280;68963;52.138;5.446;2023-07-31T00:08:25;101009.97;;;15.82;100.00
78562;BME280;68963;52.138;5.446;2023-07-31T00:10:52;101002.22;;;15.81;100.00
78562;BME280;68963;52.138;5.446;2023-07-31T00:13:19;100999.56;;;15.81;100.00
78562;BME280;68963;52.138;5.446;2023-07-31T00:15:45;100992.63;;;15.80;100.00
78562;BME280;68963;52.138;5.446;2023-07-31T00:18:12;100992.41;;;15.81;100.00
78562;BME280;68963;52.138;5.446;2023-07-31T00:20:38;100982.97;;;15.85;100.00
78562;BME280;68963;52.138;5.446;2023-07-31T00:23:05;100975.00;;;15.85;100.00
78562;BME280;68963;52.138;5.446;2023-07-31T00:25:31;100970.06;;;15.89;100.00
78562;BME280;68963;52.138;5.446;2023-07-31T00:27:58;100973.53;;;15.89;100.00
78562;BME280;68963;52.138;5.446;2023-07-31T00:30:25;100982.47;;;15.95;100.00
78562;BME280;68963;52.138;5.446;2023-07-31T00:32:53;100984.69;;;15.98;100.00
78562;BME280;68963;52.138;5.446;2023-07-31T00:35:20;100977.16;;;15.95;100.00
78562;BME280;68963;52.138;5.446;2023-07-31T00:37:46;100971.03;;;15.94;100.00
78562;BME280;68963;52.138;5.446;2023-07-31T00:40:13;100981.44;;;15.96;100.00
78562;BME280;68963;52.138;5.446;2023-07-31T00:42:40;100969.56;;;15.99;100.00
78562;BME280;68963;52.138;5.446;2023-07-31T00:45:07;100970.38;;;15.99;100.00
78562;BME280;68963;52.138;5.446;2023-07-31T00:47:34;100962.97;;;16.01;100.00
78562;BME280;68963;52.138;5.446;2023-07-31T00:50:00;100957.03;;;16.06;100.00
78562;BME280;68963;52.138;5.446;2023-07-31T00:52:27;100959.81;;;16.11;100.00
78562;BME280;68963;52.138;5.446;2023-07-31T00:54:54;100957.53;;;16.14;100.00
78562;BME280;68963;52.138;5.446;2023-07-31T00:57:20;100960.56;;;16.18;100.00
78562;BME280;68963;52.138;5.446;2023-07-31T00:59:47;100958.84;;;16.24;100.00
78562;BME280;68963;52.138;5.446;2023-07-31T01:02:14;100951.25;;;16.27;100.00
78562;BME280;68963;52.138;5.446;2023-07-31T01:04:42;100957.53;;;16.33;100.00
78562;BME280;68963;52.138;5.446;2023-07-31T01:07:16;100950.50;;;16.38;100.00
78562;BME280;68963;52.138;5.446;2023-07-31T01:10:23;100951.69;;;16.42;100.00
78562;BME280;68963;52.138;5.446;2023-07-31T01:12:53;100953.88;;;16.46;100.00
78562;BME280;68963;52.138;5.446;2023-07-31T01:15:20;100943.84;;;16.48;100.00
78562;BME280;68963;52.138;5.446;2023-07-31T01:17:47;100961.22;;;16.50;100.00
78562;BME280;68963;52.138;5.446;2023-07-31T01:20:17;100954.03;;;16.51;100.00
78562;BME280;68963;52.138;5.446;2023-07-31T01:23:08;100962.03;;;16.51;100.00
78562;BME280;68963;52.138;5.446;2023-07-31T01:28:56;100959.19;;;16.46;100.00
78562;BME280;68963;52.138;5.446;2023-07-31T01:31:29;100955.38;;;16.41;100.00
78562;BME280;68963;52.138;5.446;2023-07-31T01:33:58;100954.19;;;16.37;100.00
78562;BME280;68963;52.138;5.446;2023-07-31T01:36:26;100950.38;;;16.33;100.00
78562;BME280;68963;52.138;5.446;2023-07-31T01:38:58;100956.72;;;16.32;100.00
78562;BME280;68963;52.138;5.446;2023-07-31T01:41:25;100955.09;;;16.31;100.00
78562;BME280;68963;52.138;5.446;2023-07-31T01:43:52;100956.94;;;16.31;100.00
78562;BME280;68963;52.138;5.446;2023-07-31T01:46:19;100950.81;;;16.30;100.00
78562;BME280;68963;52.138;5.446;2023-07-31T01:48:45;100956.94;;;16.31;100.00
78562;BME280;68963;52.138;5.446;2023-07-31T01:51:12;100953.47;;;16.30;100.00
78562;BME280;68963;52.138;5.446;2023-07-31T01:53:39;100945.28;;;16.32;100.00
78562;BME280;68963;52.138;5.446;2023-07-31T01:56:05;100938.91;;;16.33;100.00
78562;BME280;68963;52.138;5.446;2023-07-31T01:58:32;100931.56;;;16.35;100.00
78562;BME280;68963;52.138;5.446;2023-07-31T02:00:58;100937.00;;;16.40;100.00
78562;BME280;68963;52.138;5.446;2023-07-31T02:03:25;100941.06;;;16.42;100.00
78562;BME280;68963;52.138;5.446;2023-07-31T02:05:53;100941.63;;;16.45;100.00
78562;BME280;68963;52.138;5.446;2023-07-31T02:08:20;100932.63;;;16.46;100.00
78562;BME280;68963;52.138;5.446;2023-07-31T02:10:47;100935.28;;;16.46;100.00
78562;BME280;68963;52.138;5.446;2023-07-31T02:13:13;100931.00;;;16.45;100.00
78562;BME280;68963;52.138;5.446;2023-07-31T02:15:40;100918.50;;;16.45;100.00
78562;BME280;68963;52.138;5.446;2023-07-31T02:18:07;100908.91;;;16.44;100.00
78562;BME280;68963;52.138;5.446;2023-07-31T02:20:34;100911.81;;;16.42;100.00
78562;BME280;68963;52.138;5.446;2023-07-31T02:23:01;100912.84;;;16.41;100.00
78562;BME280;68963;52.138;5.446;2023-07-31T02:25:28;100896.31;;;16.39;100.00
78562;BME280;68963;52.138;5.446;2023-07-31T02:27:55;100903.69;;;16.37;100.00
78562;BME280;68963;52.138;5.446;2023-07-31T02:30:21;100893.28;;;16.36;100.00
78562;BME280;68963;52.138;5.446;2023-07-31T02:32:48;100895.34;;;16.34;100.00
78562;BME280;68963;52.138;5.446;2023-07-31T02:35:15;100900.66;;;16.34;100.00
78562;BME280;68963;52.138;5.446;2023-07-31T02:37:42;100901.72;;;16.33;100.00
78562;BME280;68963;52.138;5.446;2023-07-31T02:40:09;100898.81;;;16.34;100.00
78562;BME280;68963;52.138;5.446;2023-07-31T02:42:36;100896.16;;;16.34;100.00
78562;BME280;68963;52.138;5.446;2023-07-31T02:45:03;100898.81;;;16.34;100.00
78562;BME280;68963;52.138;5.446;2023-07-31T02:47:29;100893.50;;;16.34;100.00
78562;BME280;68963;52.138;5.446;2023-07-31T02:49:59;100890.84;;;16.34;100.00
78562;BME280;68963;52.138;5.446;2023-07-31T02:52:26;100895.34;;;16.34;100.00
78562;BME280;68963;52.138;5.446;2023-07-31T02:54:52;100889.00;;;16.35;100.00
78562;BME280;68963;52.138;5.446;2023-07-31T02:57:19;100886.56;;;16.33;100.00
78562;BME280;68963;52.138;5.446;2023-07-31T02:59:46;100887.38;;;16.34;100.00
78562;BME280;68963;52.138;5.446;2023-07-31T03:02:12;100877.78;;;16.33;100.00
78562;BME280;68963;52.138;5.446;2023-07-31T03:04:39;100883.91;;;16.33;100.00
78562;BME280;68963;52.138;5.446;2023-07-31T03:07:06;100881.25;;;16.33;100.00
78562;BME280;68963;52.138;5.446;2023-07-31T03:09:33;100883.91;;;16.33;100.00
78562;BME280;68963;52.138;5.446;2023-07-31T03:12:00;100885.53;;;16.34;100.00
78562;BME280;68963;52.138;5.446;2023-07-31T03:14:26;100879.63;;;16.32;100.00
78562;BME280;68963;52.138;5.446;2023-07-31T03:16:54;100874.88;;;16.34;100.00
78562;BME280;68963;52.138;5.446;2023-07-31T03:19:21;100893.72;;;16.33;100.00
78562;BME280;68963;52.138;5.446;2023-07-31T03:21:48;100884.16;;;16.32;100.00
78562;BME280;68963;52.138;5.446;2023-07-31T03:24:14;100875.13;;;16.33;100.00
78562;BME280;68963;52.138;5.446;2023-07-31T03:26:41;100875.34;;;16.31;100.00
78562;BME280;68963;52.138;5.446;2023-07-31T03:29:08;100878.81;;;16.32;100.00
78562;BME280;68963;52.138;5.446;2023-07-31T03:31:35;100870.25;;;16.30;100.00
78562;BME280;68963;52.138;5.446;2023-07-31T03:34:02;100867.84;;;16.28;100.00
78562;BME280;68963;52.138;5.446;2023-07-31T03:36:28;100871.50;;;16.27;100.00
78562;BME280;68963;52.138;5.446;2023-07-31T03:38:55;100865.63;;;16.25;100.00
78562;BME280;68963;52.138;5.446;2023-07-31T03:41:22;100870.13;;;16.25;100.00
78562;BME280;68963;52.138;5.446;2023-07-31T03:43:50;100875.66;;;16.23;100.00
78562;BME280;68963;52.138;5.446;2023-07-31T03:46:23;100868.72;;;16.22;100.00
78562;BME280;68963;52.138;5.446;2023-07-31T03:48:50;100868.72;;;16.22;100.00
78562;BME280;68963;52.138;5.446;2023-07-31T03:51:17;100870.56;;;16.22;100.00
78562;BME280;68963;52.138;5.446;2023-07-31T03:53:44;100872.41;;;16.21;100.00
78562;BME280;68963;52.138;5.446;2023-07-31T03:56:12;100868.94;;;16.21;100.00
78562;BME280;68963;52.138;5.446;2023-07-31T03:58:38;100859.13;;;16.21;100.00
78562;BME280;68963;52.138;5.446;2023-07-31T04:01:05;100871.38;;;16.22;100.00
78562;BME280;68963;52.138;5.446;2023-07-31T04:03:32;100866.06;;;16.22;100.00
78562;BME280;68963;52.138;5.446;2023-07-31T04:05:58;100860.97;;;16.21;100.00
78562;BME280;68963;52.138;5.446;2023-07-31T04:08:25;100863.84;;;16.19;100.00
78562;BME280;68963;52.138;5.446;2023-07-31T04:10:52;100854.50;;;16.16;100.00
78562;BME280;68963;52.138;5.446;2023-07-31T04:13:18;100851.84;;;16.16;100.00
78562;BME280;68963;52.138;5.446;2023-07-31T04:15:51;100849.63;;;16.13;100.00
78562;BME280;68963;52.138;5.446;2023-07-31T04:18:17;100852.47;;;16.12;100.00
78562;BME280;68963;52.138;5.446;2023-07-31T04:20:44;100838.63;;;16.10;100.00
78562;BME280;68963;52.138;5.446;2023-07-31T04:23:11;100838.03;;;16.08;100.00
78562;BME280;68963;52.138;5.446;2023-07-31T04:25:38;100828.22;;;16.08;100.00
78562;BME280;68963;52.138;5.446;2023-07-31T04:28:04;100824.16;;;16.06;100.00
78562;BME280;68963;52.138;5.446;2023-07-31T04:30:31;100830.28;;;16.06;100.00
78562;BME280;68963;52.138;5.446;2023-07-31T04:32:58;100825.78;;;16.07;100.00
78562;BME280;68963;52.138;5.446;2023-07-31T04:35:25;100823.94;;;16.07;100.00
78562;BME280;68963;52.138;5.446;2023-07-31T04:37:51;100829.00;;;16.09;100.00
78562;BME280;68963;52.138;5.446;2023-07-31T04:40:18;100836.78;;;16.10;100.00
78562;BME280;68963;52.138;5.446;2023-07-31T04:42:45;100836.78;;;16.10;100.00
78562;BME280;68963;52.138;5.446;2023-07-31T04:45:12;100834.94;;;16.11;100.00
78562;BME280;68963;52.138;5.446;2023-07-31T04:47:39;100833.06;;;16.11;100.00
78562;BME280;68963;52.138;5.446;2023-07-31T04:50:06;100833.88;;;16.12;100.00
78562;BME280;68963;52.138;5.446;2023-07-31T04:52:33;100831.22;;;16.12;100.00
78562;BME280;68963;52.138;5.446;2023-07-31T04:55:00;100829.63;;;16.11;100.00
78562;BME280;68963;52.138;5.446;2023-07-31T04:57:27;100823.69;;;16.09;100.00
78562;BME280;68963;52.138;5.446;2023-07-31T04:59:53;100823.69;;;16.09;100.00
78562;BME280;68963;52.138;5.446;2023-07-31T05:02:20;100816.78;;;16.08;100.00
78562;BME280;68963;52.138;5.446;2023-07-31T05:04:47;100817.00;;;16.06;100.00
78562;BME280;68963;52.138;5.446;2023-07-31T05:07:13;100804.97;;;16.04;100.00
78562;BME280;68963;52.138;5.446;2023-07-31T05:09:40;100800.69;;;16.03;100.00
78562;BME280;68963;52.138;5.446;2023-07-31T05:12:07;100800.69;;;16.03;100.00
78562;BME280;68963;52.138;5.446;2023-07-31T05:14:34;100802.31;;;16.04;100.00
78562;BME280;68963;52.138;5.446;2023-07-31T05:17:00;100803.34;;;16.03;100.00
78562;BME280;68963;52.138;5.446;2023-07-31T05:19:27;100805.41;;;16.01;100.00
78562;BME280;68963;52.138;5.446;2023-07-31T05:21:53;100807.06;;;16.02;100.00
78562;BME280;68963;52.138;5.446;2023-07-31T05:24:20;100809.72;;;16.02;100.00
78562;BME280;68963;52.138;5.446;2023-07-31T05:26:47;100807.06;;;16.02;100.00
78562;BME280;68963;52.138;5.446;2023-07-31T05:29:13;100800.69;;;16.03;100.00
78562;BME280;68963;52.138;5.446;2023-07-31T05:31:40;100793.97;;;16.00;100.00
78562;BME280;68963;52.138;5.446;2023-07-31T05:34:07;100802.19;;;15.99;100.00
78562;BME280;68963;52.138;5.446;2023-07-31T05:36:33;100794.66;;;15.96;100.00
78562;BME280;68963;52.138;5.446;2023-07-31T05:39:00;100790.41;;;15.94;100.00
78562;BME280;68963;52.138;5.446;2023-07-31T05:41:32;100793.50;;;15.91;100.00
78562;BME280;68963;52.138;5.446;2023-07-31T05:43:59;100785.53;;;15.91;100.00
78562;BME280;68963;52.138;5.446;2023-07-31T05:46:25;100783.44;;;15.93;100.00
78562;BME280;68963;52.138;5.446;2023-07-31T05:48:52;100778.72;;;15.96;100.00
78562;BME280;68963;52.138;5.446;2023-07-31T05:51:18;100774.22;;;15.96;100.00
78562;BME280;68963;52.138;5.446;2023-07-31T05:53:45;100769.72;;;15.97;100.00
78562;BME280;68963;52.138;5.446;2023-07-31T05:56:11;100763.34;;;15.98;100.00
78562;BME280;68963;52.138;5.446;2023-07-31T05:58:38;100768.47;;;15.99;100.00
78562;BME280;68963;52.138;5.446;2023-07-31T06:01:05;100756.56;;;16.02;100.00
78562;BME280;68963;52.138;5.446;2023-07-31T06:03:31;100756.56;;;16.02;100.00
78562;BME280;68963;52.138;5.446;2023-07-31T06:05:58;100746.97;;;16.01;100.00
78562;BME280;68963;52.138;5.446;2023-07-31T06:08:24;100760.84;;;16.03;100.00
78562;BME280;68963;52.138;5.446;2023-07-31T06:10:51;100756.09;;;16.05;100.00
78562;BME280;68963;52.138;5.446;2023-07-31T06:13:18;100755.28;;;16.04;100.00
78562;BME280;68963;52.138;5.446;2023-07-31T06:15:44;100747.31;;;16.04;100.00
78562;BME280;68963;52.138;5.446;2023-07-31T06:18:11;100749.78;;;16.06;100.00
78562;BME280;68963;52.138;5.446;2023-07-31T06:20:38;100742.59;;;16.06;100.00
78562;BME280;68963;52.138;5.446;2023-07-31T06:23:06;100747.94;;;16.06;100.00
78562;BME280;68963;52.138;5.446;2023-07-31T06:25:33;100752.78;;;16.09;100.00
78562;BME280;68963;52.138;5.446;2023-07-31T06:28:00;100741.94;;;16.11;100.00
78562;BME280;68963;52.138;5.446;2023-07-31T06:30:26;100738.22;;;16.12;100.00
78562;BME280;68963;52.138;5.446;2023-07-31T06:32:53;100731.06;;;16.12;100.00
78562;BME280;68963;52.138;5.446;2023-07-31T06:35:19;100730.25;;;16.12;100.00
78562;BME280;68963;52.138;5.446;2023-07-31T06:37:46;100731.28;;;16.11;100.00
78562;BME280;68963;52.138;5.446;2023-07-31T06:40:13;100725.75;;;16.12;100.00
78562;BME280;68963;52.138;5.446;2023-07-31T06:42:39;100718.13;;;16.16;100.00
78562;BME280;68963;52.138;5.446;2023-07-31T06:45:06;100720.13;;;16.21;100.00
78562;BME280;68963;52.138;5.446;2023-07-31T06:47:33;100711.47;;;16.25;100.00
78562;BME280;68963;52.138;5.446;2023-07-31T06:50:00;100708.91;;;16.30;100.00
78562;BME280;68963;52.138;5.446;2023-07-31T06:52:27;100711.38;;;16.32;100.00
78562;BME280;68963;52.138;5.446;2023-07-31T06:55:16;100714.13;;;16.37;100.00
78562;BME280;68963;52.138;5.446;2023-07-31T06:57:46;100708.56;;;16.38;100.00
78562;BME280;68963;52.138;5.446;2023-07-31T07:00:13;100700.16;;;16.41;100.00
78562;BME280;68963;52.138;5.446;2023-07-31T07:02:40;100699.25;;;16.48;100.00
78562;BME280;68963;52.138;5.446;2023-07-31T07:05:08;100697.53;;;16.53;100.00
78562;BME280;68963;52.138;5.446;2023-07-31T07:07:35;100696.81;;;16.58;100.00
78562;BME280;68963;52.138;5.446;2023-07-31T07:10:02;100691.06;;;16.61;100.00
78562;BME280;68963;52.138;5.446;2023-07-31T07:12:30;100696.72;;;16.64;100.00
78562;BME280;68963;52.138;5.446;2023-07-31T07:14:57;100691.59;;;16.63;100.00
78562;BME280;68963;52.138;5.446;2023-07-31T07:17:25;100696.38;;;16.61;100.00
78562;BME280;68963;52.138;5.446;2023-07-31T07:19:52;100690.81;;;16.62;100.00
78562;BME280;68963;52.138;5.446;2023-07-31T07:22:18;100695.06;;;16.63;100.00
78562;BME280;68963;52.138;5.446;2023-07-31T07:24:45;100694.88;;;16.65;100.00
78562;BME280;68963;52.138;5.446;2023-07-31T07:27:11;100690.09;;;16.67;100.00
78562;BME280;68963;52.138;5.446;2023-07-31T07:29:38;100689.09;;;16.68;100.00
78562;BME280;68963;52.138;5.446;2023-07-31T07:32:05;100697.28;;;16.66;100.00
78562;BME280;68963;52.138;5.446;2023-07-31T07:34:32;100687.22;;;16.69;100.00
78562;BME280;68963;52.138;5.446;2023-07-31T07:36:58;100688.38;;;16.73;100.00
78562;BME280;68963;52.138;5.446;2023-07-31T07:39:25;100690.72;;;16.81;100.00
78562;BME280;68963;52.138;5.446;2023-07-31T07:41:51;100686.53;;;16.85;100.00
78562;BME280;68963;52.138;5.446;2023-07-31T07:44:19;100681.00;;;16.86;100.00
78562;BME280;68963;52.138;5.446;2023-07-31T07:46:46;100689.91;;;16.92;100.00
78562;BME280;68963;52.138;5.446;2023-07-31T07:49:13;100682.25;;;16.96;100.00
78562;BME280;68963;52.138;5.446;2023-07-31T07:51:39;100687.69;;;17.01;100.00
78562;BME280;68963;52.138;5.446;2023-07-31T07:54:06;100685.59;;;17.03;100.00
78562;BME280;68963;52.138;5.446;2023-07-31T07:56:33;100686.19;;;17.05;100.00
78562;BME280;68963;52.138;5.446;2023-07-31T07:58:59;100678.53;;;17.08;100.00
78562;BME280;68963;52.138;5.446;2023-07-31T08:01:26;100676.78;;;17.14;100.00
78562;BME280;68963;52.138;5.446;2023-07-31T08:03:53;100671.56;;;17.19;100.00
78562;BME280;68963;52.138;5.446;2023-07-31T08:06:19;100669.72;;;17.20;100.00
78562;BME280;68963;52.138;5.446;2023-07-31T08:08:46;100670.06;;;17.23;100.00
78562;BME280;68963;52.138;5.446;2023-07-31T08:11:13;100663.22;;;17.27;100.00
78562;BME280;68963;52.138;5.446;2023-07-31T08:13:39;100668.31;;;17.29;100.00
78562;BME280;68963;52.138;5.446;2023-07-31T08:16:06;100661.44;;;17.33;100.00
78562;BME280;68963;52.138;5.446;2023-07-31T08:18:32;100657.75;;;17.34;100.00
78562;BME280;68963;52.138;5.446;2023-07-31T08:21:01;100663.41;;;17.37;100.00
78562;BME280;68963;52.138;5.446;2023-07-31T08:23:28;100655.53;;;17.43;100.00
78562;BME280;68963;52.138;5.446;2023-07-31T08:25:55;100662.78;;;17.47;100.00
78562;BME280;68963;52.138;5.446;2023-07-31T08:28:21;100656.75;;;17.52;100.00
78562;BME280;68963;52.138;5.446;2023-07-31T08:30:48;100659.53;;;17.57;100.00
78562;BME280;68963;52.138;5.446;2023-07-31T08:33:16;100657.88;;;17.56;100.00
78562;BME280;68963;52.138;5.446;2023-07-31T08:35:43;100645.72;;;17.60;100.00
78562;BME280;68963;52.138;5.446;2023-07-31T08:38:10;100649.44;;;17.59;100.00
78562;BME280;68963;52.138;5.446;2023-07-31T08:40:38;100654.03;;;17.63;100.00
78562;BME280;68963;52.138;5.446;2023-07-31T08:43:05;100655.03;;;17.74;100.00
78562;BME280;68963;52.138;5.446;2023-07-31T08:45:32;100650.84;;;17.78;100.00
78562;BME280;68963;52.138;5.446;2023-07-31T08:47:59;100646.44;;;17.84;100.00
78562;BME280;68963;52.138;5.446;2023-07-31T08:50:26;100644.91;;;17.88;100.00
78562;BME280;68963;52.138;5.446;2023-07-31T08:52:54;100646.84;;;17.93;100.00
78562;BME280;68963;52.138;5.446;2023-07-31T08:55:24;100642.00;;;18.06;100.00
78562;BME280;68963;52.138;5.446;2023-07-31T08:57:52;100648.47;;;18.10;100.00
78562;BME280;68963;52.138;5.446;2023-07-31T09:00:21;100642.41;;;18.15;100.00
78562;BME280;68963;52.138;5.446;2023-07-31T09:05:26;100653.47;;;18.41;100.00
78562;BME280;68963;52.138;5.446;2023-07-31T09:07:53;100648.97;;;18.41;100.00
78562;BME280;68963;52.138;5.446;2023-07-31T09:10:21;100644.13;;;18.38;100.00
78562;BME280;68963;52.138;5.446;2023-07-31T09:12:49;100656.22;;;18.46;100.00
78562;BME280;68963;52.138;5.446;2023-07-31T09:15:17;100650.41;;;18.49;100.00
78562;BME280;68963;52.138;5.446;2023-07-31T09:18:02;100647.81;;;18.54;100.00
78562;BME280;68963;52.138;5.446;2023-07-31T09:20:29;100646.50;;;18.56;100.00
78562;BME280;68963;52.138;5.446;2023-07-31T09:22:56;100639.66;;;18.44;100.00
78562;BME280;68963;52.138;5.446;2023-07-31T09:25:24;100638.69;;;18.33;100.00
78562;BME280;68963;52.138;5.446;2023-07-31T09:28:00;100632.16;;;18.24;100.00
78562;BME280;68963;52.138;5.446;2023-07-31T09:30:27;100629.41;;;18.19;100.00
78562;BME280;68963;52.138;5.446;2023-07-31T09:33:06;100637.97;;;18.38;100.00
78562;BME280;68963;52.138;5.446;2023-07-31T09:35:34;100637.31;;;18.47;100.00
78562;BME280;68963;52.138;5.446;2023-07-31T09:38:12;100632.97;;;18.41;100.00
78562;BME280;68963;52.138;5.446;2023-07-31T09:40:41;100630.53;;;18.40;100.00
78562;BME280;68963;52.138;5.446;2023-07-31T09:43:10;100635.84;;;18.40;100.00
78562;BME280;68963;52.138;5.446;2023-07-31T09:45:39;100633.75;;;18.42;100.00
78562;BME280;68963;52.138;5.446;2023-07-31T09:48:15;100627.94;;;18.45;100.00
78562;BME280;68963;52.138;5.446;2023-07-31T09:50:47;100626.53;;;18.59;100.00
78562;BME280;68963;52.138;5.446;2023-07-31T09:53:15;100637.03;;;18.66;100.00
78562;BME280;68963;52.138;5.446;2023-07-31T09:55:43;100632.44;;;18.78;100.00
78562;BME280;68963;52.138;5.446;2023-07-31T09:58:11;100625.66;;;18.92;100.00
78562;BME280;68963;52.138;5.446;2023-07-31T10:00:38;100627.50;;;18.92;100.00
78562;BME280;68963;52.138;5.446;2023-07-31T10:03:07;100631.81;;;18.93;100.00
78562;BME280;68963;52.138;5.446;2023-07-31T10:05:36;100628.00;;;18.89;100.00
78562;BME280;68963;52.138;5.446;2023-07-31T10:08:04;100614.44;;;18.90;100.00
78562;BME280;68963;52.138;5.446;2023-07-31T10:10:32;100621.25;;;19.03;100.00
78562;BME280;68963;52.138;5.446;2023-07-31T10:13:02;100620.81;;;19.11;100.00
78562;BME280;68963;52.138;5.446;2023-07-31T10:15:29;100627.50;;;19.14;100.00
78562;BME280;68963;52.138;5.446;2023-07-31T10:17:57;100631.25;;;19.13;100.00
78562;BME280;68963;52.138;5.446;2023-07-31T10:20:25;100638.06;;;19.03;100.00
78562;BME280;68963;52.138;5.446;2023-07-31T10:22:54;100632.38;;;18.95;100.00
78562;BME280;68963;52.138;5.446;2023-07-31T10:25:22;100630.50;;;18.95;100.00
78562;BME280;68963;52.138;5.446;2023-07-31T10:27:49;100628.94;;;18.99;100.00
78562;BME280;68963;52.138;5.446;2023-07-31T10:30:17;100633.00;;;19.02;100.00
78562;BME280;68963;52.138;5.446;2023-07-31T10:32:46;100633.88;;;18.86;100.00
78562;BME280;68963;52.138;5.446;2023-07-31T10:35:16;100629.25;;;18.81;100.00
78562;BME280;68963;52.138;5.446;2023-07-31T10:37:44;100625.41;;;18.72;100.00
78562;BME280;68963;52.138;5.446;2023-07-31T10:40:13;100622.75;;;18.72;100.00
78562;BME280;68963;52.138;5.446;2023-07-31T10:42:51;100632.75;;;18.81;100.00
78562;BME280;68963;52.138;5.446;2023-07-31T10:45:30;100619.28;;;18.93;100.00
78562;BME280;68963;52.138;5.446;2023-07-31T10:47:59;100632.00;;;19.08;100.00
78562;BME280;68963;52.138;5.446;2023-07-31T10:50:28;100626.16;;;19.11;100.00
78562;BME280;68963;52.138;5.446;2023-07-31T10:52:56;100623.81;;;19.15;100.00
78562;BME280;68963;52.138;5.446;2023-07-31T10:55:39;100629.16;;;19.15;100.00
78562;BME280;68963;52.138;5.446;2023-07-31T10:58:10;100628.88;;;19.16;100.00
78562;BME280;68963;52.138;5.446;2023-07-31T11:00:41;100631.28;;;19.18;100.00
78562;BME280;68963;52.138;5.446;2023-07-31T11:03:11;100624.91;;;19.19;100.00
78562;BME280;68963;52.138;5.446;2023-07-31T11:06:00;100623.81;;;19.15;100.00
78562;BME280;68963;52.138;5.446;2023-07-31T11:08:31;100630.69;;;19.11;100.00
78562;BME280;68963;52.138;5.446;2023-07-31T11:13:39;100627.97;;;19.33;100.00
78562;BME280;68963;52.138;5.446;2023-07-31T11:16:06;100632.28;;;19.34;100.00
78562;BME280;68963;52.138;5.446;2023-07-31T11:18:35;100640.84;;;19.36;100.00
78562;BME280;68963;52.138;5.446;2023-07-31T11:21:02;100627.75;;;19.34;100.00
78562;BME280;68963;52.138;5.446;2023-07-31T11:23:28;100623.97;;;19.30;100.00
78562;BME280;68963;52.138;5.446;2023-07-31T11:25:59;100623.09;;;19.24;100.00
78562;BME280;68963;52.138;5.446;2023-07-31T11:28:26;100620.69;;;19.23;100.00
78562;BME280;68963;52.138;5.446;2023-07-31T11:30:58;100621.88;;;19.10;100.00
78562;BME280;68963;52.138;5.446;2023-07-31T11:33:24;100618.97;;;19.12;100.00
78562;BME280;68963;52.138;5.446;2023-07-31T11:35:51;100623.59;;;19.21;100.00
78562;BME280;68963;52.138;5.446;2023-07-31T11:38:29;100616.19;;;19.28;100.00
78562;BME280;68963;52.138;5.446;2023-07-31T11:41:00;100623.34;;;19.23;100.00
78562;BME280;68963;52.138;5.446;2023-07-31T11:43:30;100625.94;;;19.18;100.00
78562;BME280;68963;52.138;5.446;2023-07-31T11:45:58;100618.50;;;19.20;100.00
78562;BME280;68963;52.138;5.446;2023-07-31T11:48:30;100616.34;;;19.17;100.00
78562;BME280;68963;52.138;5.446;2023-07-31T11:51:04;100613.66;;;19.17;100.00
78562;BME280;68963;52.138;5.446;2023-07-31T11:56:18;100622.34;;;19.07;100.00
78562;BME280;68963;52.138;5.446;2023-07-31T11:58:57;100608.47;;;19.05;100.00
78562;BME280;68963;52.138;5.446;2023-07-31T12:01:26;100606.25;;;18.97;100.00
78562;BME280;68963;52.138;5.446;2023-07-31T12:03:54;100606.72;;;18.94;100.00
78562;BME280;68963;52.138;5.446;2023-07-31T12:06:32;100612.00;;;18.89;100.00
78562;BME280;68963;52.138;5.446;2023-07-31T12:09:09;100618.97;;;18.90;100.00
78562;BME280;68963;52.138;5.446;2023-07-31T12:11:47;100615.50;;;18.89;100.00
78562;BME280;68963;52.138;5.446;2023-07-31T12:14:33;100612.31;;;18.92;100.00
78562;BME280;68963;52.138;5.446;2023-07-31T12:17:05;100622.00;;;18.98;100.00
78562;BME280;68963;52.138;5.446;2023-07-31T12:19:33;100609.31;;;19.11;100.00
78562;BME280;68963;52.138;5.446;2023-07-31T12:22:01;100621.00;;;19.26;100.00
78562;BME280;68963;52.138;5.446;2023-07-31T12:24:29;100613.53;;;19.28;100.00
78562;BME280;68963;52.138;5.446;2023-07-31T12:26:56;100607.88;;;19.25;100.00
78562;BME280;68963;52.138;5.446;2023-07-31T12:29:23;100601.19;;;19.22;100.00
78562;BME280;68963;52.138;5.446;2023-07-31T12:31:49;100604.91;;;19.21;100.00
78562;BME280;68963;52.138;5.446;2023-07-31T12:34:18;100597.16;;;19.20;100.00
78562;BME280;68963;52.138;5.446;2023-07-31T12:36:45;100590.56;;;19.27;100.00
78562;BME280;68963;52.138;5.446;2023-07-31T12:39:12;100584.44;;;19.32;100.00
78562;BME280;68963;52.138;5.446;2023-07-31T12:41:39;100579.31;;;19.25;100.00
78562;BME280;68963;52.138;5.446;2023-07-31T12:44:09;100587.22;;;19.15;100.00
78562;BME280;68963;52.138;5.446;2023-07-31T12:46:36;100585.59;;;19.14;100.00
78562;BME280;68963;52.138;5.446;2023-07-31T12:49:04;100583.53;;;19.21;100.00
78562;BME280;68963;52.138;5.446;2023-07-31T12:51:31;100575.94;;;19.35;100.00
78562;BME280;68963;52.138;5.446;2023-07-31T12:53:58;100597.22;;;19.52;100.00
78562;BME280;68963;52.138;5.446;2023-07-31T12:56:24;100572.59;;;19.50;100.00